createdAt,value
2022-11-20T00:01:34.868Z,99239.22
2022-11-20T00:04:02.944Z,99270.78
2022-11-20T00:06:31.382Z,99255.75
2022-11-20T00:09:01.508Z,99301.97
2022-11-20T00:11:31.305Z,99313.28
2022-11-20T00:14:02.805Z,99272.53
2022-11-20T00:16:33.011Z,99256.56
2022-11-20T00:19:02.147Z,99295.72
2022-11-20T00:21:31.315Z,99232.13
2022-11-20T00:24:00.175Z,99237.84
2022-11-20T00:26:29.358Z,99252.63
2022-11-20T00:29:01.141Z,99301.25
2022-11-20T00:31:31.264Z,99267.34
2022-11-20T00:33:59.226Z,99241.28
2022-11-20T00:36:30.188Z,99279.72
2022-11-20T00:38:59.608Z,99236.09
2022-11-20T00:41:30.034Z,99284.59
2022-11-20T00:43:58.753Z,99287.47
2022-11-20T00:46:29.025Z,99283.38
2022-11-20T00:48:57.845Z,99271.00
2022-11-20T00:51:28.775Z,99220.50
2022-11-20T00:54:01.153Z,99275.28
2022-11-20T00:56:29.585Z,99217.28
2022-11-20T00:59:01.154Z,99257.50
2022-11-20T01:01:31.040Z,99252.25
2022-11-20T01:04:01.408Z,99255.72
2022-11-20T01:06:33.461Z,99245.44
2022-11-20T01:09:06.237Z,99192.84
2022-11-20T01:11:40.017Z,99235.06
2022-11-20T01:14:15.167Z,99243.38
2022-11-20T01:16:47.076Z,99201.16
2022-11-20T01:19:18.959Z,99227.94
2022-11-20T01:21:50.776Z,99248.22
2022-11-20T01:24:21.912Z,99234.81
2022-11-20T01:26:51.986Z,99241.25
2022-11-20T01:29:25.470Z,99233.53
2022-11-20T01:31:54.110Z,99237.94
2022-11-20T01:34:23.624Z,99205.00
2022-11-20T01:36:52.905Z,99182.78
2022-11-20T01:39:25.270Z,99180.78
2022-11-20T01:42:14.228Z,99234.34
2022-11-20T01:44:53.251Z,99225.13
2022-11-20T01:47:40.817Z,99184.44
2022-11-20T01:50:30.140Z,99216.88
2022-11-20T01:53:06.401Z,99219.75
2022-11-20T01:55:40.520Z,99219.38
2022-11-20T01:58:09.682Z,99217.25
2022-11-20T02:00:37.752Z,99212.44
2022-11-20T02:03:11.046Z,99186.69
2022-11-20T02:06:25.153Z,99153.28
2022-11-20T02:08:54.066Z,99212.19
2022-11-20T02:11:22.498Z,99214.69
2022-11-20T02:13:51.099Z,99197.53
2022-11-20T02:16:38.967Z,99217.72
2022-11-20T02:19:28.558Z,99208.41
2022-11-20T02:22:20.530Z,99221.44
2022-11-20T02:24:49.031Z,99168.97
2022-11-20T02:27:18.118Z,99173.31
2022-11-20T02:30:00.259Z,99219.31
2022-11-20T02:32:33.332Z,99225.16
2022-11-20T02:35:27.378Z,99213.69
2022-11-20T02:37:57.858Z,99212.34
2022-11-20T02:40:26.564Z,99215.34
2022-11-20T02:42:56.943Z,99211.81
2022-11-20T02:45:25.447Z,99208.47
2022-11-20T02:47:54.030Z,99203.88
2022-11-20T02:50:22.208Z,99196.69
2022-11-20T02:52:50.233Z,99200.34
2022-11-20T02:55:18.129Z,99197.59
2022-11-20T02:57:46.393Z,99198.38
2022-11-20T03:00:14.932Z,99197.31
2022-11-20T03:02:44.207Z,99178.44
2022-11-20T03:05:12.578Z,99182.81
2022-11-20T03:07:40.382Z,99201.59
2022-11-20T03:10:09.079Z,99154.41
2022-11-20T03:12:37.338Z,99201.47
2022-11-20T03:15:05.895Z,99199.91
2022-11-20T03:17:33.771Z,99151.06
2022-11-20T03:20:02.226Z,99204.97
2022-11-20T03:22:31.258Z,99156.66
2022-11-20T03:24:59.211Z,99196.25
2022-11-20T03:27:27.366Z,99193.25
2022-11-20T03:29:55.623Z,99162.91
2022-11-20T03:32:23.528Z,99196.78
2022-11-20T03:34:51.523Z,99190.03
2022-11-20T03:37:20.194Z,99191.88
2022-11-20T03:39:48.003Z,99175.47
2022-11-20T03:42:34.614Z,99131.75
2022-11-20T03:45:02.565Z,99159.88
2022-11-20T03:47:30.433Z,99169.31
2022-11-20T03:49:58.334Z,99166.22
2022-11-20T03:52:26.076Z,99133.00
2022-11-20T03:54:54.053Z,99171.41
2022-11-20T03:57:22.238Z,99164.03
2022-11-20T03:59:49.976Z,99156.22
2022-11-20T04:02:19.780Z,99155.03
2022-11-20T04:04:47.956Z,99165.38
2022-11-20T04:07:15.776Z,99176.41
2022-11-20T04:09:43.836Z,99171.09
2022-11-20T04:12:11.922Z,99165.88
2022-11-20T04:14:39.744Z,99152.78
2022-11-20T04:17:07.632Z,99172.66
2022-11-20T04:19:35.722Z,99123.81
2022-11-20T04:22:03.775Z,99160.66
2022-11-20T04:24:31.739Z,99157.69
2022-11-20T04:26:59.629Z,99159.97
2022-11-20T04:29:27.480Z,99161.63
2022-11-20T04:31:55.820Z,99158.25
2022-11-20T04:34:23.766Z,99157.50
2022-11-20T04:36:51.620Z,99116.72
2022-11-20T04:39:20.074Z,99133.38
2022-11-20T04:41:48.673Z,99131.13
2022-11-20T04:44:16.547Z,99146.59
2022-11-20T04:46:44.434Z,99136.31
2022-11-20T04:49:13.122Z,99138.06
2022-11-20T04:51:41.065Z,99138.31
2022-11-20T04:54:11.928Z,99122.91
2022-11-20T04:56:39.900Z,99133.09
2022-11-20T04:59:07.655Z,99048.19
2022-11-20T05:01:35.777Z,99133.59
2022-11-20T05:04:03.902Z,99131.84
2022-11-20T05:06:31.707Z,99130.84
2022-11-20T05:08:59.961Z,99093.72
2022-11-20T05:11:30.254Z,99128.94
2022-11-20T05:14:00.905Z,99085.22
2022-11-20T05:16:28.879Z,99131.91
2022-11-20T05:18:57.452Z,99065.28
2022-11-20T05:21:25.426Z,99121.72
2022-11-20T05:23:53.404Z,99119.41
2022-11-20T05:26:23.400Z,99103.72
2022-11-20T05:28:52.183Z,99116.72
2022-11-20T05:31:27.021Z,99073.41
2022-11-20T05:33:58.312Z,99070.34
2022-11-20T05:36:26.336Z,99104.19
2022-11-20T05:38:59.694Z,99075.13
2022-11-20T05:41:30.086Z,99074.63
2022-11-20T05:43:59.598Z,99117.22
2022-11-20T05:46:29.276Z,99107.19
2022-11-20T05:48:59.154Z,99092.78
2022-11-20T05:51:28.347Z,99127.97
2022-11-20T05:53:59.772Z,99137.38
2022-11-20T05:56:27.925Z,99136.50
2022-11-20T05:58:55.888Z,99144.88
2022-11-20T06:01:27.106Z,99118.06
2022-11-20T06:03:57.224Z,99145.34
2022-11-20T06:06:27.108Z,99108.50
2022-11-20T06:08:56.609Z,99150.28
2022-11-20T06:11:24.595Z,99148.50
2022-11-20T06:13:52.862Z,99021.78
2022-11-20T06:16:21.540Z,99102.91
2022-11-20T06:18:49.799Z,99100.72
2022-11-20T06:21:23.212Z,99101.22
2022-11-20T06:23:53.596Z,99103.13
2022-11-20T06:26:24.769Z,99144.06
2022-11-20T06:28:53.935Z,99097.75
2022-11-20T06:31:24.837Z,99131.28
2022-11-20T06:33:53.737Z,99095.94
2022-11-20T06:36:24.017Z,99147.53
2022-11-20T06:38:52.178Z,99096.06
2022-11-20T06:41:22.766Z,99142.25
2022-11-20T06:43:51.432Z,99060.00
2022-11-20T06:46:21.232Z,99145.75
2022-11-20T06:48:50.845Z,99150.78
2022-11-20T06:51:19.308Z,99156.84
2022-11-20T06:53:47.484Z,99145.50
2022-11-20T06:56:15.687Z,99136.41
2022-11-20T06:58:43.860Z,99127.75
2022-11-20T07:01:15.131Z,99091.16
2022-11-20T07:03:45.214Z,99137.38
2022-11-20T07:06:13.206Z,99081.97
2022-11-20T07:08:41.449Z,99093.53
2022-11-20T07:11:09.629Z,99117.84
2022-11-20T07:13:37.606Z,99123.13
2022-11-20T07:16:09.384Z,99128.97
2022-11-20T07:18:37.716Z,99060.38
2022-11-20T07:21:11.104Z,99138.59
2022-11-20T07:23:39.408Z,99126.63
2022-11-20T07:26:10.436Z,99061.81
2022-11-20T07:28:39.382Z,99108.47
2022-11-20T07:31:08.604Z,99112.84
2022-11-20T07:33:36.580Z,99111.81
2022-11-20T07:36:05.299Z,99071.84
2022-11-20T07:38:33.392Z,99105.28
2022-11-20T07:41:04.264Z,99103.06
2022-11-20T07:43:34.819Z,99102.28
2022-11-20T07:46:06.598Z,99102.84
2022-11-20T07:48:36.185Z,99100.59
2022-11-20T07:51:04.185Z,99098.28
2022-11-20T07:53:32.125Z,99095.50
2022-11-20T07:56:04.512Z,99089.47
2022-11-20T07:58:35.500Z,99097.03
2022-11-20T08:01:09.283Z,99099.75
2022-11-20T08:03:40.677Z,99011.38
2022-11-20T08:06:09.090Z,99068.75
2022-11-20T08:08:42.425Z,99100.75
2022-11-20T08:11:29.917Z,99075.97
2022-11-20T08:14:13.362Z,99096.56
2022-11-20T08:16:47.691Z,99094.34
2022-11-20T08:19:18.835Z,99095.53
2022-11-20T08:21:47.530Z,99089.81
2022-11-20T08:24:15.445Z,99084.28
2022-11-20T08:26:43.659Z,99051.75
2022-11-20T08:29:11.869Z,99096.31
2022-11-20T08:31:40.150Z,99088.09
2022-11-20T08:34:09.620Z,99091.09
2022-11-20T08:36:38.431Z,99094.81
2022-11-20T08:39:06.468Z,99093.44
2022-11-20T08:41:34.936Z,99079.00
2022-11-20T08:44:09.071Z,99080.41
2022-11-20T08:46:39.400Z,99023.25
2022-11-20T08:49:12.661Z,99067.44
2022-11-20T08:51:42.550Z,99024.41
2022-11-20T08:54:11.174Z,99066.81
2022-11-20T08:56:39.493Z,99043.00
2022-11-20T08:59:27.054Z,99015.06
2022-11-20T09:01:56.489Z,99046.22
2022-11-20T09:04:24.549Z,99028.94
2022-11-20T09:06:53.264Z,99045.06
2022-11-20T09:09:21.847Z,99040.16
2022-11-20T09:11:51.297Z,98989.22
2022-11-20T09:14:19.530Z,99050.00
2022-11-20T09:16:48.145Z,99046.38
2022-11-20T09:22:04.642Z,99045.84
2022-11-20T09:24:34.288Z,99043.50
2022-11-20T09:27:06.584Z,99025.91
2022-11-20T09:29:34.779Z,99050.31
2022-11-20T09:32:02.944Z,99003.63
2022-11-20T09:34:31.084Z,99041.41
2022-11-20T09:37:01.632Z,99035.41
2022-11-20T09:39:33.111Z,99045.69
2022-11-20T09:42:42.839Z,99012.22
2022-11-20T09:45:24.138Z,99050.22
2022-11-20T09:48:07.418Z,99059.66
2022-11-20T09:50:55.943Z,99042.38
2022-11-20T09:54:00.446Z,99038.34
2022-11-20T09:56:30.372Z,99041.44
2022-11-20T09:59:06.177Z,99032.03
2022-11-20T10:01:39.765Z,99037.34
2022-11-20T10:04:20.828Z,99038.50
2022-11-20T10:07:34.709Z,98997.00
2022-11-20T10:10:02.876Z,99033.38
2022-11-20T10:12:46.335Z,99038.09
2022-11-20T10:15:42.084Z,99017.63
2022-11-20T10:18:41.918Z,99036.63
2022-11-20T10:21:24.329Z,99039.59
2022-11-20T10:24:32.290Z,99041.81
2022-11-20T10:28:11.793Z,99047.16
2022-11-20T10:30:44.976Z,99053.13
2022-11-20T10:33:24.928Z,99051.94
2022-11-20T10:36:17.795Z,99055.94
2022-11-20T10:38:55.976Z,98997.72
2022-11-20T10:41:41.587Z,99019.44
2022-11-20T10:44:52.329Z,99024.81
2022-11-20T10:47:23.926Z,99013.25
2022-11-20T10:49:58.492Z,99022.00
2022-11-20T10:53:06.383Z,99013.03
2022-11-20T10:56:21.270Z,99006.19
2022-11-20T10:59:13.569Z,98972.38
2022-11-20T11:01:44.036Z,99000.13
2022-11-20T11:04:42.301Z,99011.19
2022-11-20T11:07:25.728Z,99013.25
2022-11-20T11:09:57.304Z,98974.75
2022-11-20T11:12:28.492Z,98990.72
2022-11-20T11:14:58.880Z,99018.38
2022-11-20T11:17:32.364Z,99022.75
2022-11-20T11:20:05.326Z,99011.00
2022-11-20T11:22:46.252Z,99009.41
2022-11-20T11:25:36.958Z,99013.00
2022-11-20T11:28:26.978Z,99014.41
2022-11-20T11:30:57.175Z,99006.94
2022-11-20T11:33:31.831Z,98968.19
2022-11-20T11:36:05.890Z,99009.47
2022-11-20T11:38:44.320Z,98986.44
2022-11-20T11:41:22.116Z,99002.22
2022-11-20T11:44:20.888Z,99005.22
2022-11-20T11:46:56.873Z,98950.03
2022-11-20T11:49:25.599Z,98997.47
2022-11-20T11:52:05.097Z,98990.00
2022-11-20T11:54:45.240Z,98992.25
2022-11-20T11:58:10.873Z,98944.50
2022-11-20T12:00:46.703Z,98939.28
2022-11-20T12:03:28.450Z,98939.28
2022-11-20T12:06:06.882Z,98975.34
2022-11-20T12:08:44.371Z,98978.03
2022-11-20T12:11:25.447Z,98964.22
2022-11-20T12:14:35.349Z,98958.63
2022-11-20T12:17:04.077Z,98943.50
2022-11-20T12:19:35.793Z,98951.81
2022-11-20T12:22:11.781Z,98924.16
2022-11-20T12:25:03.867Z,98933.13
2022-11-20T12:28:12.908Z,98930.16
2022-11-20T12:30:54.291Z,98927.06
2022-11-20T12:33:45.956Z,98924.63
2022-11-20T12:36:45.422Z,98918.31
2022-11-20T12:39:35.190Z,98920.47
2022-11-20T12:43:18.466Z,98908.22
2022-11-20T12:46:12.549Z,98910.16
2022-11-20T12:48:49.236Z,98917.56
2022-11-20T12:51:43.690Z,98901.19
2022-11-20T12:54:39.303Z,98907.94
2022-11-20T12:57:34.762Z,98913.06
2022-11-20T13:00:16.675Z,98904.94
2022-11-20T13:02:57.227Z,98921.94
2022-11-20T13:06:11.598Z,98897.13
2022-11-20T13:08:49.744Z,98909.59
2022-11-20T13:11:49.030Z,98909.81
2022-11-20T13:14:48.867Z,98908.59
2022-11-20T13:17:37.310Z,98915.88
2022-11-20T13:20:14.081Z,98903.28
2022-11-20T13:22:50.329Z,98874.91
2022-11-20T13:25:38.874Z,98924.00
2022-11-20T13:28:31.319Z,98923.34
2022-11-20T13:31:00.416Z,98918.88
2022-11-20T13:33:38.996Z,98916.53
2022-11-20T13:36:30.058Z,98865.19
2022-11-20T13:38:58.554Z,98903.38
2022-11-20T13:41:39.203Z,98896.53
2022-11-20T13:44:15.577Z,98902.91
2022-11-20T13:46:47.290Z,98915.88
2022-11-20T13:49:18.634Z,98914.47
2022-11-20T13:51:52.073Z,98917.63
2022-11-20T13:55:03.224Z,98912.06
2022-11-20T13:58:23.461Z,98903.56
2022-11-20T14:01:32.622Z,98910.00
2022-11-20T14:04:08.063Z,98864.44
2022-11-20T14:06:45.341Z,98894.78
2022-11-20T14:09:31.178Z,98896.75
2022-11-20T14:11:59.722Z,98890.75
2022-11-20T14:14:30.765Z,98895.44
2022-11-20T14:17:10.872Z,98887.50
2022-11-20T14:19:42.645Z,98892.25
2022-11-20T14:22:12.125Z,98800.22
2022-11-20T14:24:40.045Z,98872.56
2022-11-20T14:27:24.681Z,98875.56
2022-11-20T14:29:53.397Z,98873.41
2022-11-20T14:32:28.426Z,98830.84
2022-11-20T14:35:08.025Z,98880.97
2022-11-20T14:37:40.915Z,98872.63
2022-11-20T14:40:26.834Z,98871.50
2022-11-20T14:42:55.754Z,98800.56
2022-11-20T14:45:24.981Z,98857.13
2022-11-20T14:47:57.486Z,98849.66
2022-11-20T14:50:30.535Z,98843.31
2022-11-20T14:53:02.082Z,98824.34
2022-11-20T14:55:34.674Z,98856.44
2022-11-20T14:58:21.347Z,98859.41
2022-11-20T15:01:08.904Z,98863.88
2022-11-20T15:03:41.449Z,98869.09
2022-11-20T15:06:13.856Z,98852.75
2022-11-20T15:08:53.489Z,98860.00
2022-11-20T15:11:33.634Z,98852.94
2022-11-20T15:14:07.948Z,98852.06
2022-11-20T15:16:36.102Z,98857.59
2022-11-20T15:19:14.177Z,98807.63
2022-11-20T15:21:42.367Z,98807.13
2022-11-20T15:24:11.070Z,98856.69
2022-11-20T15:26:44.305Z,98850.41
2022-11-20T15:29:20.394Z,98814.63
2022-11-20T15:31:48.665Z,98855.31
2022-11-20T15:34:17.887Z,98858.34
2022-11-20T15:36:46.884Z,98821.63
2022-11-20T15:39:15.089Z,98856.09
2022-11-20T15:41:43.219Z,98874.06
2022-11-20T15:44:11.396Z,98811.22
2022-11-20T15:46:46.401Z,98869.44
2022-11-20T15:49:17.672Z,98875.59
2022-11-20T15:51:49.945Z,98816.41
2022-11-20T15:54:23.566Z,98877.19
2022-11-20T15:56:55.629Z,98866.16
2022-11-20T15:59:23.759Z,98863.47
2022-11-20T16:01:51.710Z,98861.97
2022-11-20T16:04:20.048Z,98857.59
2022-11-20T16:06:48.995Z,98825.91
2022-11-20T16:09:17.494Z,98814.03
2022-11-20T16:11:45.540Z,98852.91
2022-11-20T16:14:32.409Z,98852.31
2022-11-20T16:17:00.403Z,98860.13
2022-11-20T16:19:28.421Z,98862.78
2022-11-20T16:22:02.439Z,98866.41
2022-11-20T16:24:31.252Z,98747.66
2022-11-20T16:26:59.327Z,98871.22
2022-11-20T16:29:27.183Z,98860.34
2022-11-20T16:31:55.666Z,98815.69
2022-11-20T16:34:24.024Z,98817.63
2022-11-20T16:36:52.020Z,98861.75
2022-11-20T16:39:23.720Z,98867.75
2022-11-20T16:41:52.245Z,98856.16
2022-11-20T16:44:20.535Z,98809.63
2022-11-20T16:46:48.373Z,98861.19
2022-11-20T16:49:16.434Z,98857.31
2022-11-20T16:51:44.497Z,98844.47
2022-11-20T16:54:21.273Z,98854.66
2022-11-20T16:56:52.106Z,98862.72
2022-11-20T16:59:20.055Z,98853.94
2022-11-20T17:01:47.943Z,98846.50
2022-11-20T17:04:16.395Z,98848.66
2022-11-20T17:06:45.448Z,98848.38
2022-11-20T17:09:14.012Z,98842.56
2022-11-20T17:11:42.432Z,98846.63
2022-11-20T17:14:12.092Z,98860.22
2022-11-20T17:16:40.221Z,98858.16
2022-11-20T17:19:08.574Z,98846.75
2022-11-20T17:21:37.129Z,98761.81
2022-11-20T17:24:08.373Z,98839.63
2022-11-20T17:26:38.065Z,98842.84
2022-11-20T17:29:19.038Z,98850.66
2022-11-20T17:31:48.762Z,98842.66
2022-11-20T17:34:17.325Z,98830.06
2022-11-20T17:36:46.623Z,98845.88
2022-11-20T17:39:17.657Z,98790.56
2022-11-20T17:42:06.416Z,98836.94
2022-11-20T17:44:35.460Z,98839.66
2022-11-20T17:47:03.544Z,98822.03
2022-11-20T17:49:31.619Z,98833.53
2022-11-20T17:52:00.334Z,98830.53
2022-11-20T17:54:28.329Z,98820.59
2022-11-20T17:57:14.986Z,98814.22
2022-11-20T17:59:43.418Z,98768.75
2022-11-20T18:02:11.391Z,98808.84
2022-11-20T18:04:39.475Z,98813.88
2022-11-20T18:07:07.605Z,98810.00
2022-11-20T18:09:36.096Z,98792.19
2022-11-20T18:12:04.559Z,98758.56
2022-11-20T18:14:33.016Z,98802.03
2022-11-20T18:17:13.001Z,98756.88
2022-11-20T18:20:21.384Z,98783.78
2022-11-20T18:22:38.692Z,98782.00
2022-11-20T18:25:07.315Z,98786.78
2022-11-20T18:27:35.516Z,98768.88
2022-11-20T18:30:03.970Z,98774.09
2022-11-20T18:32:34.229Z,98775.31
2022-11-20T18:35:02.415Z,98784.19
2022-11-20T18:37:32.373Z,98777.22
2022-11-20T18:40:00.441Z,98785.84
2022-11-20T18:42:47.328Z,98777.03
2022-11-20T18:45:15.594Z,98770.63
2022-11-20T18:47:44.284Z,98768.94
2022-11-20T18:50:12.448Z,98761.81
2022-11-20T18:52:48.027Z,98778.31
2022-11-20T18:55:17.901Z,98785.28
2022-11-20T18:57:45.964Z,98754.78
2022-11-20T19:00:14.732Z,98786.03
2022-11-20T19:02:43.552Z,98707.50
2022-11-20T19:05:15.066Z,98794.81
2022-11-20T19:07:43.852Z,98778.66
2022-11-20T19:10:12.169Z,98789.53
2022-11-20T19:12:40.650Z,98776.13
2022-11-20T19:15:09.628Z,98752.84
2022-11-20T19:17:38.118Z,98790.06
2022-11-20T19:20:07.226Z,98786.34
2022-11-20T19:22:35.297Z,98786.34
2022-11-20T19:25:03.473Z,98778.97
2022-11-20T19:27:31.697Z,98782.56
2022-11-20T19:30:03.746Z,98728.34
2022-11-20T19:32:32.840Z,98720.31
2022-11-20T19:35:00.909Z,98775.63
2022-11-20T19:37:29.286Z,98736.75
2022-11-20T19:39:59.874Z,98781.69
2022-11-20T19:42:27.896Z,98777.84
2022-11-20T19:44:58.504Z,98780.47
2022-11-20T19:47:40.854Z,98774.41
2022-11-20T19:50:16.259Z,98732.63
2022-11-20T19:52:45.798Z,98700.66
2022-11-20T19:55:13.931Z,98759.22
2022-11-20T19:57:42.349Z,98761.38
2022-11-20T20:00:12.459Z,98749.13
2022-11-20T20:02:40.955Z,98765.34
2022-11-20T20:05:10.225Z,98699.00
2022-11-20T20:07:40.269Z,98698.13
2022-11-20T20:10:09.294Z,98737.84
2022-11-20T20:12:37.711Z,98687.28
2022-11-20T20:15:09.504Z,98733.63
2022-11-20T20:17:37.496Z,98733.22
2022-11-20T20:20:06.542Z,98697.06
2022-11-20T20:22:34.951Z,98730.53
2022-11-20T20:25:03.014Z,98724.78
2022-11-20T20:27:31.817Z,98718.63
2022-11-20T20:30:00.337Z,98722.72
2022-11-20T20:32:28.617Z,98663.47
2022-11-20T20:34:57.844Z,98718.38
2022-11-20T20:37:26.363Z,98664.75
2022-11-20T20:39:56.193Z,98710.25
2022-11-20T20:42:27.958Z,98702.91
2022-11-20T20:45:11.802Z,98700.47
2022-11-20T20:47:43.217Z,98701.22
2022-11-20T20:50:13.326Z,98713.81
2022-11-20T20:52:42.769Z,98712.75
2022-11-20T20:55:11.414Z,98719.47
2022-11-20T20:57:39.474Z,98717.81
2022-11-20T21:00:09.137Z,98709.69
2022-11-20T21:02:38.048Z,98694.31
2022-11-20T21:05:06.576Z,98710.81
2022-11-20T21:07:34.684Z,98708.78
2022-11-20T21:10:03.168Z,98693.56
2022-11-20T21:12:32.572Z,98710.34
2022-11-20T21:15:00.772Z,98715.28
2022-11-20T21:17:29.548Z,98712.50
2022-11-20T21:19:57.744Z,98720.22
2022-11-20T21:22:25.975Z,98711.72
2022-11-20T21:24:54.265Z,98714.78
2022-11-20T21:27:22.467Z,98716.28
2022-11-20T21:29:50.391Z,98715.44
2022-11-20T21:32:18.643Z,98645.38
2022-11-20T21:34:46.634Z,98712.75
2022-11-20T21:37:14.791Z,98724.16
2022-11-20T21:39:50.978Z,98699.88
2022-11-20T21:42:19.045Z,98729.81
2022-11-20T21:44:48.229Z,98733.63
2022-11-20T21:47:20.031Z,98739.81
2022-11-20T21:49:48.757Z,98744.72
2022-11-20T21:52:17.488Z,98744.91
2022-11-20T21:54:45.629Z,98749.47
2022-11-20T21:57:13.818Z,98745.53
2022-11-20T21:59:41.676Z,98735.81
2022-11-20T22:02:13.068Z,98736.09
2022-11-20T22:04:41.961Z,98726.66
2022-11-20T22:07:10.092Z,98733.72
2022-11-20T22:09:38.374Z,98734.44
2022-11-20T22:12:06.443Z,98694.94
2022-11-20T22:14:34.427Z,98729.22
2022-11-20T22:17:02.416Z,98720.63
2022-11-20T22:19:30.551Z,98675.75
2022-11-20T22:21:59.465Z,98644.56
2022-11-20T22:24:27.944Z,98642.53
2022-11-20T22:26:56.131Z,98707.59
2022-11-20T22:29:24.003Z,98659.72
2022-11-20T22:31:53.381Z,98641.66
2022-11-20T22:34:22.055Z,98713.44
2022-11-20T22:36:50.753Z,98718.78
2022-11-20T22:39:18.930Z,98715.63
2022-11-20T22:41:46.885Z,98718.78
2022-11-20T22:44:16.463Z,98705.53
2022-11-20T22:46:44.456Z,98680.00
2022-11-20T22:49:12.796Z,98725.50
2022-11-20T22:51:41.724Z,98726.25
2022-11-20T22:54:12.891Z,98718.06
2022-11-20T22:56:41.641Z,98671.22
2022-11-20T22:59:09.879Z,98702.69
2022-11-20T23:01:38.539Z,98668.72
2022-11-20T23:04:10.511Z,98701.84
2022-11-20T23:06:38.704Z,98674.66
2022-11-20T23:09:08.268Z,98709.72
2022-11-20T23:11:36.730Z,98654.00
2022-11-20T23:14:12.097Z,98712.47
2022-11-20T23:16:40.293Z,98708.94
2022-11-20T23:19:12.248Z,98706.00
2022-11-20T23:21:42.372Z,98557.94
2022-11-20T23:24:10.707Z,98701.81
2022-11-20T23:26:40.705Z,98688.53
2022-11-20T23:29:08.891Z,98691.44
2022-11-20T23:31:37.304Z,98698.16
2022-11-20T23:34:05.816Z,98713.53
2022-11-20T23:36:34.445Z,98668.28
2022-11-20T23:39:02.572Z,98698.69
2022-11-20T23:41:30.591Z,98700.16
2022-11-20T23:43:58.603Z,98694.28
2022-11-20T23:46:26.753Z,98613.84
2022-11-20T23:48:54.685Z,98698.59
2022-11-20T23:51:22.621Z,98691.59
2022-11-20T23:53:50.573Z,98639.09
2022-11-20T23:56:18.497Z,98701.75
2022-11-20T23:58:46.389Z,98655.28
